»·PEaware :: RNGR701 KNGP-KHRL

RNGR701 :: KNGP-KHRL

FLIGHT INFORMATION

Flight Status: Arrived
Operator: Unknown
More flights by this operator :: More flights under this callsign
Pilot: USN Avenger (31125)
Aircraft: BEECH AIRCRAFT T-6A TEXAN
(TEX2)
More flights by this aircraft type
Origin: KNGP Corpus Christi NAS/Truax
United States
Destination: KHRL Valley Intl
United States
More flights between these airports :: More routes between these airports
Route: +NGP* JETTY V70 JIMIE V407 HRL
File this flight plan on PilotEdge
Remarks:
Altitude:
(Current/Filed)
6,000ft
Speed:
(Current/Filed)
0kts
Departed: 15-Sep-20 12:25 PM
Arrived: 15-Sep-20 01:03 PM
Distance/Time
Traveled:
90nm/0:37
Distance/Time
To Go:
Arrived

Flight Plot

Page will automatically refresh every two minutes.

Flight plan parsing failed; only flown route is shown


Map Options




Map Legend


Flown Route
Filed Route
Departure Airport
Arrival Airport
Navaid (VOR, NDB)
Fix

Horizontal Profiles

Position Reports

Time Latitude Longitude Heading Altitude Ground
Speed
15-Sep-20 12:11 27.697227 -97.284442 161 22ft 0kts
15-Sep-20 12:12 27.697226 -97.284442 161 22ft 0kts
15-Sep-20 12:13 27.697221 -97.284440 161 22ft 0kts
15-Sep-20 12:14 27.697215 -97.284437 161 22ft 0kts
15-Sep-20 12:15 27.697209 -97.284435 161 22ft 0kts
15-Sep-20 12:16 27.697203 -97.284433 161 22ft 0kts
15-Sep-20 12:17 27.697197 -97.284431 161 22ft 0kts
15-Sep-20 12:18 27.697191 -97.284429 161 22ft 0kts
15-Sep-20 12:19 27.697185 -97.284426 161 22ft 0kts
15-Sep-20 12:20 27.697179 -97.284424 161 22ft 0kts
15-Sep-20 12:21 27.696712 -97.285432 283 22ft 8kts
15-Sep-20 12:22 27.698944 -97.285790 338 22ft 10kts
15-Sep-20 12:23 27.696320 -97.289823 224 22ft 22kts
15-Sep-20 12:24 27.690273 -97.286105 134 48ft 123kts
15-Sep-20 12:25 27.656243 -97.253244 166 2429ft 185kts
15-Sep-20 12:26 27.617195 -97.288887 231 5401ft 198kts
15-Sep-20 12:27 27.591725 -97.327229 236 6131ft 232kts
15-Sep-20 12:28 27.591725 -97.327229 236 6131ft 232kts
15-Sep-20 12:29 27.591725 -97.327229 236 6131ft 232kts
15-Sep-20 12:30 27.591725 -97.327229 236 6131ft 232kts
15-Sep-20 12:31 27.591725 -97.327229 236 6131ft 232kts
15-Sep-20 12:32 27.587721 -97.334088 238 6153ft 233kts
15-Sep-20 12:33 27.553134 -97.397445 238 6035ft 239kts
15-Sep-20 12:34 27.519078 -97.463721 239 6027ft 247kts
15-Sep-20 12:35 27.483412 -97.529165 235 6089ft 252kts
15-Sep-20 12:36 27.427399 -97.566363 191 6014ft 252kts
15-Sep-20 12:37 27.358899 -97.583997 193 6017ft 250kts
15-Sep-20 12:38 27.290605 -97.600686 195 6007ft 251kts
15-Sep-20 12:39 27.224162 -97.624835 194 6009ft 251kts
15-Sep-20 12:40 27.155419 -97.638768 193 6013ft 251kts
15-Sep-20 12:41 27.085350 -97.657717 199 6027ft 274kts
15-Sep-20 12:42 27.010141 -97.677982 191 6030ft 280kts
15-Sep-20 12:43 26.933622 -97.695908 192 6002ft 281kts
15-Sep-20 12:44 26.855765 -97.701930 179 4457ft 275kts
15-Sep-20 12:45 26.792534 -97.701895 180 2434ft 239kts
15-Sep-20 12:46 26.739791 -97.701793 181 2024ft 200kts
15-Sep-20 12:47 26.682727 -97.701822 178 2081ft 208kts
15-Sep-20 12:48 26.674861 -97.701789 180 2056ft 209kts
15-Sep-20 12:49 26.674861 -97.701789 180 2056ft 209kts
15-Sep-20 12:50 26.674861 -97.701789 180 2056ft 209kts
15-Sep-20 12:51 26.674861 -97.701789 180 2056ft 209kts
15-Sep-20 12:52 26.635108 -97.702006 181 1968ft 189kts
15-Sep-20 12:54 26.586567 -97.701701 180 1973ft 156kts
15-Sep-20 12:55 26.537899 -97.705745 180 1995ft 221kts
15-Sep-20 12:56 26.476930 -97.701902 163 1808ft 218kts
15-Sep-20 12:57 26.431033 -97.674513 147 1655ft 151kts
15-Sep-20 12:58 26.392875 -97.656817 178 1665ft 163kts
15-Sep-20 12:59 26.356397 -97.656881 180 1477ft 124kts
15-Sep-20 13:00 26.321592 -97.657527 181 1440ft 123kts
15-Sep-20 13:01 26.287838 -97.658072 180 1037ft 122kts
15-Sep-20 13:02 26.253931 -97.658415 180 384ft 123kts
15-Sep-20 13:03 26.229479 -97.658719 179 39ft 0kts
15-Sep-20 13:04 26.229479 -97.658719 179 39ft 0kts
15-Sep-20 13:05 26.229479 -97.658719 179 39ft 0kts
15-Sep-20 13:06 26.229479 -97.658719 179 39ft 0kts
15-Sep-20 13:07 26.229479 -97.658719 179 39ft 0kts
15-Sep-20 13:08 26.229479 -97.658719 179 39ft 0kts
15-Sep-20 13:09 26.229479 -97.658719 179 39ft 0kts
15-Sep-20 13:10 26.229479 -97.658719 179 39ft 0kts
15-Sep-20 13:10 26.229479 -97.658719 179 39ft 0kts
15-Sep-20 13:12 26.229479 -97.658719 179 39ft 0kts
15-Sep-20 13:12 26.229479 -97.658719 179 39ft 0kts
15-Sep-20 13:13 26.229479 -97.658719 179 39ft 0kts
15-Sep-20 13:15 26.229479 -97.658719 179 39ft 0kts
15-Sep-20 13:15 26.229479 -97.658719 179 39ft 0kts
15-Sep-20 13:16 26.229479 -97.658719 179 39ft 0kts

Navigation Log

Ident Type
Flight plan parsing failed, navigation log unavailable